Ardara, Pennsylvania
Current Conditions -  °F | °C
As of 2:53 PM on Wednesday 17 Dec 2014 (Local Time) from KAGC Reporting Station
Overcast Overcast  
Wind Chill: -6°   Ceiling: 2500
Heat Index:   Visibility: 10mi
Dew Point: -6°   Wind: 20mph
Humidity: 64%   Direction: 260°W
Pressure: 30.05"   Gusts: 26mph
Location:  40.36°N, 79.73°W
Report Text: KAGC 171953Z 26017G23KT 10SM OVC025 01/M06 A3005 RMK AO2 SLP191 T00061056
Loading
Personal Weather Stations






























Interactive Weather Map New forecast layout! Learn more

10-Day Weather Forecast

Advertisements
Track Severe Weather on mobile